createdAt,value
2018-01-30T00:00:03.424Z,7.21
2018-01-30T00:01:03.420Z,7.22
2018-01-30T00:02:03.416Z,7.19
2018-01-30T00:03:03.415Z,7.21
2018-01-30T00:04:03.407Z,7.26
2018-01-30T00:05:03.404Z,7.32
2018-01-30T00:06:03.402Z,7.26
2018-01-30T00:07:03.396Z,7.22
2018-01-30T00:08:03.390Z,7.18
2018-01-30T00:09:03.389Z,7.19
2018-01-30T00:10:03.385Z,7.21
2018-01-30T00:11:03.380Z,7.14
2018-01-30T00:12:03.375Z,7.19
2018-01-30T00:13:03.371Z,7.07
2018-01-30T00:14:03.368Z,6.97
2018-01-30T00:15:03.363Z,7.00
2018-01-30T00:16:03.359Z,6.95
2018-01-30T00:17:03.354Z,6.86
2018-01-30T00:18:03.350Z,6.87
2018-01-30T00:19:03.345Z,6.77
2018-01-30T00:20:03.341Z,6.78
2018-01-30T00:21:03.338Z,6.68
2018-01-30T00:22:03.334Z,6.78
2018-01-30T00:23:03.329Z,6.80
2018-01-30T00:24:03.325Z,6.68
2018-01-30T00:25:03.321Z,6.65
2018-01-30T00:26:03.315Z,6.59
2018-01-30T00:27:03.312Z,6.70
2018-01-30T00:28:03.307Z,6.78
2018-01-30T00:29:03.303Z,6.65
2018-01-30T00:30:03.300Z,6.54
2018-01-30T00:31:03.294Z,6.67
2018-01-30T00:32:03.290Z,6.54
2018-01-30T00:33:03.286Z,6.74
2018-01-30T00:34:03.279Z,6.57
2018-01-30T00:35:03.276Z,6.59
2018-01-30T00:36:03.273Z,6.70
2018-01-30T00:37:03.267Z,6.68
2018-01-30T00:38:03.263Z,6.59
2018-01-30T00:39:03.258Z,6.64
2018-01-30T00:40:03.254Z,6.60
2018-01-30T00:41:03.250Z,6.67
2018-01-30T00:42:03.244Z,6.59
2018-01-30T00:43:03.239Z,6.59
2018-01-30T00:44:03.236Z,6.64
2018-01-30T00:45:03.233Z,6.64
2018-01-30T00:46:03.225Z,6.56
2018-01-30T00:47:03.221Z,6.59
2018-01-30T00:48:03.216Z,6.64
2018-01-30T00:49:03.215Z,6.57
2018-01-30T00:50:03.207Z,6.59
2018-01-30T00:51:03.202Z,6.59
2018-01-30T00:52:03.198Z,6.44
2018-01-30T00:53:03.194Z,6.64
2018-01-30T00:54:03.186Z,6.53
2018-01-30T00:55:03.185Z,6.60
2018-01-30T00:56:03.179Z,6.62
2018-01-30T00:57:03.173Z,6.56
2018-01-30T00:58:03.168Z,6.59
2018-01-30T00:59:03.162Z,6.59
2018-01-30T01:00:03.161Z,6.54
2018-01-30T01:01:03.153Z,6.57
2018-01-30T01:02:03.148Z,6.59
2018-01-30T01:03:03.144Z,6.60
2018-01-30T01:04:03.138Z,6.62
2018-01-30T01:05:03.135Z,6.52
2018-01-30T01:06:03.129Z,6.64
2018-01-30T01:07:03.124Z,6.56
2018-01-30T01:08:03.120Z,6.54
2018-01-30T01:09:03.114Z,6.59
2018-01-30T01:10:03.110Z,6.60
2018-01-30T01:11:03.104Z,6.54
2018-01-30T01:12:03.098Z,6.52
2018-01-30T01:13:03.094Z,6.49
2018-01-30T01:14:03.088Z,6.52
2018-01-30T01:15:03.084Z,6.44
2018-01-30T01:16:03.079Z,6.46
2018-01-30T01:17:03.074Z,6.47
2018-01-30T01:18:03.069Z,6.44
2018-01-30T01:19:03.065Z,6.47
2018-01-30T01:20:03.060Z,6.47
2018-01-30T01:21:03.055Z,6.43
2018-01-30T01:22:03.049Z,6.49
2018-01-30T01:23:03.045Z,6.46
2018-01-30T01:24:03.039Z,6.41
2018-01-30T01:25:03.033Z,6.44
2018-01-30T01:26:03.028Z,6.50
2018-01-30T01:27:03.024Z,6.50
2018-01-30T01:28:03.019Z,6.44
2018-01-30T01:29:03.014Z,6.49
2018-01-30T01:30:03.007Z,6.59
2018-01-30T01:31:03.005Z,6.64
2018-01-30T01:32:02.998Z,6.60
2018-01-30T01:33:02.994Z,6.62
2018-01-30T01:34:02.989Z,6.65
2018-01-30T01:35:02.983Z,6.60
2018-01-30T01:36:02.978Z,6.56
2018-01-30T01:37:02.974Z,6.49
2018-01-30T01:38:02.970Z,6.68
2018-01-30T01:39:02.963Z,6.71
2018-01-30T01:40:02.956Z,6.82
2018-01-30T01:41:02.953Z,6.67
2018-01-30T01:42:02.947Z,6.80
2018-01-30T01:43:02.943Z,6.65
2018-01-30T01:44:02.960Z,6.72
2018-01-30T01:45:02.933Z,6.74
2018-01-30T01:46:02.927Z,6.75
2018-01-30T01:47:02.922Z,6.65
2018-01-30T01:48:02.923Z,6.70
2018-01-30T01:50:02.907Z,6.56
2018-01-30T01:51:02.902Z,6.65
2018-01-30T01:52:02.897Z,6.74
2018-01-30T01:53:02.892Z,6.65
2018-01-30T01:54:02.888Z,6.70
2018-01-30T01:55:02.884Z,6.54
2018-01-30T01:56:02.880Z,6.67
2018-01-30T01:57:02.874Z,6.52
2018-01-30T01:58:02.868Z,6.71
2018-01-30T01:59:02.862Z,6.70
2018-01-30T02:00:02.860Z,6.64
2018-01-30T02:01:02.853Z,6.71
2018-01-30T02:02:02.847Z,6.72
2018-01-30T02:03:02.843Z,6.72
2018-01-30T02:04:02.838Z,6.65
2018-01-30T02:05:02.835Z,6.71
2018-01-30T02:06:02.826Z,6.78
2018-01-30T02:07:02.823Z,6.74
2018-01-30T02:08:02.818Z,6.74
2018-01-30T02:09:02.815Z,6.68
2018-01-30T02:10:02.808Z,6.67
2018-01-30T02:11:02.804Z,6.71
2018-01-30T02:12:02.799Z,6.70
2018-01-30T02:13:02.796Z,6.82
2018-01-30T02:14:02.791Z,6.72
2018-01-30T02:15:02.787Z,6.62
2018-01-30T02:16:02.783Z,6.57
2018-01-30T02:17:02.776Z,6.60
2018-01-30T02:18:02.771Z,6.62
2018-01-30T02:19:02.766Z,6.64
2018-01-30T02:20:02.762Z,6.52
2018-01-30T02:21:02.759Z,6.46
2018-01-30T02:22:02.753Z,6.25
2018-01-30T02:23:02.748Z,6.02
2018-01-30T02:24:02.744Z,6.01
2018-01-30T02:25:02.740Z,5.90
2018-01-30T02:26:02.740Z,5.88
2018-01-30T02:27:02.730Z,5.92
2018-01-30T02:28:02.727Z,5.92
2018-01-30T02:29:02.722Z,5.97
2018-01-30T02:30:02.717Z,5.97
2018-01-30T02:31:02.715Z,6.15
2018-01-30T02:32:02.708Z,6.09
2018-01-30T02:33:02.705Z,6.07
2018-01-30T02:34:02.701Z,6.01
2018-01-30T02:35:02.696Z,6.05
2018-01-30T02:36:02.691Z,6.06
2018-01-30T02:37:02.687Z,6.05
2018-01-30T02:38:02.681Z,6.07
2018-01-30T02:39:02.677Z,6.05
2018-01-30T02:40:02.673Z,6.07
2018-01-30T02:41:02.670Z,6.07
2018-01-30T02:42:02.664Z,5.97
2018-01-30T02:43:02.660Z,5.91
2018-01-30T02:44:02.657Z,5.76
2018-01-30T02:45:02.652Z,5.76
2018-01-30T02:46:02.648Z,5.70
2018-01-30T02:47:02.643Z,5.70
2018-01-30T02:48:02.638Z,5.64
2018-01-30T02:49:02.634Z,5.65
2018-01-30T02:50:02.630Z,5.52
2018-01-30T02:51:02.625Z,5.56
2018-01-30T02:52:02.620Z,5.49
2018-01-30T02:53:02.617Z,5.59
2018-01-30T02:54:02.611Z,5.58
2018-01-30T02:55:02.608Z,5.59
2018-01-30T02:56:02.603Z,5.51
2018-01-30T02:57:02.597Z,5.58
2018-01-30T02:58:02.593Z,5.52
2018-01-30T02:59:02.590Z,5.51
2018-01-30T03:00:02.584Z,5.54
2018-01-30T03:01:02.582Z,5.44
2018-01-30T03:02:02.578Z,5.49
2018-01-30T03:03:02.572Z,5.40
2018-01-30T03:04:02.566Z,5.54
2018-01-30T03:05:02.562Z,5.55
2018-01-30T03:06:02.557Z,5.44
2018-01-30T03:07:02.553Z,5.46
2018-01-30T03:08:02.550Z,5.56
2018-01-30T03:09:02.544Z,5.55
2018-01-30T03:10:02.539Z,5.51
2018-01-30T03:11:02.535Z,5.49
2018-01-30T03:12:02.559Z,5.61
2018-01-30T03:13:02.527Z,5.58
2018-01-30T03:14:02.521Z,5.59
2018-01-30T03:15:02.517Z,5.61
2018-01-30T03:16:02.512Z,5.61
2018-01-30T03:17:02.508Z,5.55
2018-01-30T03:18:02.502Z,5.61
2018-01-30T03:19:02.499Z,5.59
2018-01-30T03:20:02.495Z,5.69
2018-01-30T03:21:02.490Z,5.69
2018-01-30T03:22:02.485Z,5.83
2018-01-30T03:23:02.480Z,5.84
2018-01-30T03:24:02.476Z,5.80
2018-01-30T03:25:02.472Z,6.02
2018-01-30T03:26:02.467Z,5.91
2018-01-30T03:27:02.462Z,5.99
2018-01-30T03:28:02.458Z,5.98
2018-01-30T03:29:02.454Z,5.94
2018-01-30T03:30:02.449Z,5.97
2018-01-30T03:31:02.446Z,5.87
2018-01-30T03:32:02.441Z,5.90
2018-01-30T03:33:02.436Z,5.87
2018-01-30T03:34:02.431Z,5.84
2018-01-30T03:35:02.428Z,5.84
2018-01-30T03:36:02.426Z,5.77
2018-01-30T03:37:02.421Z,5.83
2018-01-30T03:38:02.414Z,5.77
2018-01-30T03:39:02.410Z,5.76
2018-01-30T03:40:02.405Z,5.76
2018-01-30T03:41:02.401Z,5.76
2018-01-30T03:42:02.396Z,5.79
2018-01-30T03:43:02.393Z,5.95
2018-01-30T03:44:02.388Z,5.95
2018-01-30T03:45:02.384Z,5.88
2018-01-30T03:46:02.379Z,5.97
2018-01-30T03:47:02.375Z,5.95
2018-01-30T03:48:02.369Z,5.99
2018-01-30T03:49:02.367Z,5.88
2018-01-30T03:50:02.361Z,5.97
2018-01-30T03:51:02.358Z,5.94
2018-01-30T03:52:02.354Z,5.91
2018-01-30T03:53:02.350Z,5.99
2018-01-30T03:54:02.344Z,6.02
2018-01-30T03:55:02.339Z,5.94
2018-01-30T03:56:02.336Z,5.87
2018-01-30T03:57:02.331Z,5.72
2018-01-30T03:58:02.327Z,5.73
2018-01-30T03:59:02.322Z,5.76
2018-01-30T04:00:02.319Z,5.73
2018-01-30T04:01:02.315Z,5.70
2018-01-30T04:02:02.310Z,5.67
2018-01-30T04:03:02.307Z,5.65
2018-01-30T04:04:02.301Z,5.59
2018-01-30T04:05:02.298Z,5.55
2018-01-30T04:06:02.292Z,5.55
2018-01-30T04:07:02.287Z,5.54
2018-01-30T04:08:02.284Z,5.51
2018-01-30T04:09:02.279Z,5.55
2018-01-30T04:10:02.274Z,5.56
2018-01-30T04:11:02.270Z,5.58
2018-01-30T04:12:02.268Z,5.43
2018-01-30T04:13:02.262Z,5.54
2018-01-30T04:14:02.258Z,5.51
2018-01-30T04:15:02.253Z,5.43
2018-01-30T04:16:02.250Z,5.40
2018-01-30T04:17:02.243Z,5.46
2018-01-30T04:18:02.239Z,5.47
2018-01-30T04:19:02.235Z,5.47
2018-01-30T04:20:02.230Z,5.44
2018-01-30T04:21:02.227Z,5.44
2018-01-30T04:22:02.221Z,5.49
2018-01-30T04:23:02.219Z,5.38
2018-01-30T04:24:02.212Z,5.41
2018-01-30T04:25:02.207Z,5.52
2018-01-30T04:26:02.202Z,5.54
2018-01-30T04:27:02.198Z,5.59
2018-01-30T04:28:02.195Z,5.54
2018-01-30T04:29:02.190Z,5.52
2018-01-30T04:30:02.185Z,5.51
2018-01-30T04:31:02.181Z,5.38
2018-01-30T04:32:02.177Z,5.49
2018-01-30T04:33:02.171Z,5.51
2018-01-30T04:34:02.166Z,5.52
2018-01-30T04:35:02.162Z,5.49
2018-01-30T04:36:02.157Z,5.56
2018-01-30T04:37:02.153Z,5.52
2018-01-30T04:38:02.147Z,5.56
2018-01-30T04:39:02.144Z,5.54
2018-01-30T04:40:02.139Z,5.55
2018-01-30T04:41:02.139Z,5.47
2018-01-30T04:42:02.131Z,5.43
2018-01-30T04:43:02.125Z,5.49
2018-01-30T04:44:02.121Z,5.51
2018-01-30T04:45:02.116Z,5.55
2018-01-30T04:46:02.111Z,5.43
2018-01-30T04:47:02.108Z,5.43
2018-01-30T04:48:02.103Z,5.46
2018-01-30T04:49:02.098Z,5.36
2018-01-30T04:50:02.092Z,5.37
2018-01-30T04:51:02.088Z,5.25
2018-01-30T04:52:02.085Z,5.20
2018-01-30T04:53:02.081Z,5.15
2018-01-30T04:54:02.074Z,5.20
2018-01-30T04:55:02.070Z,5.20
2018-01-30T04:56:02.066Z,5.29
2018-01-30T04:57:02.061Z,5.28
2018-01-30T04:58:02.055Z,5.33
2018-01-30T04:59:02.051Z,5.38
2018-01-30T05:00:02.047Z,5.38
2018-01-30T05:01:02.042Z,5.40
2018-01-30T05:02:02.037Z,5.47
2018-01-30T05:03:02.032Z,5.46
2018-01-30T05:04:02.029Z,5.55
2018-01-30T05:05:02.023Z,5.47
2018-01-30T05:06:02.018Z,5.58
2018-01-30T05:07:02.014Z,5.55
2018-01-30T05:08:02.009Z,5.61
2018-01-30T05:09:02.005Z,5.64
2018-01-30T05:10:02.000Z,5.54
2018-01-30T05:11:01.993Z,5.55
2018-01-30T05:12:01.988Z,5.49
2018-01-30T05:13:01.985Z,5.61
2018-01-30T05:14:01.980Z,5.43
2018-01-30T05:15:01.975Z,5.59
2018-01-30T05:16:01.971Z,5.64
2018-01-30T05:17:01.967Z,5.61
2018-01-30T05:18:01.963Z,5.70
2018-01-30T05:19:01.957Z,5.73
2018-01-30T05:20:01.952Z,5.76
2018-01-30T05:21:01.948Z,5.84
2018-01-30T05:22:01.947Z,5.94
2018-01-30T05:23:01.940Z,6.01
2018-01-30T05:24:01.933Z,6.06
2018-01-30T05:25:01.929Z,5.98
2018-01-30T05:26:01.923Z,6.02
2018-01-30T05:27:01.919Z,6.01
2018-01-30T05:28:01.915Z,6.13
2018-01-30T05:29:01.910Z,6.17
2018-01-30T05:30:01.908Z,6.07
2018-01-30T05:31:01.900Z,6.16
2018-01-30T05:32:01.896Z,6.20
2018-01-30T05:33:01.893Z,6.15
2018-01-30T05:34:01.887Z,6.22
2018-01-30T05:35:01.881Z,6.26
2018-01-30T05:36:01.878Z,6.17
2018-01-30T05:37:01.872Z,6.25
2018-01-30T05:38:01.868Z,6.20
2018-01-30T05:39:01.862Z,6.31
2018-01-30T05:40:01.857Z,6.19
2018-01-30T05:41:01.854Z,6.19
2018-01-30T05:42:01.852Z,6.09
2018-01-30T05:43:01.843Z,6.13
2018-01-30T05:44:01.839Z,5.92
2018-01-30T05:45:01.834Z,5.81
2018-01-30T05:46:01.832Z,5.73
2018-01-30T05:47:01.824Z,5.61
2018-01-30T05:48:01.820Z,5.65
2018-01-30T05:49:01.816Z,5.51
2018-01-30T05:50:01.812Z,5.56
2018-01-30T05:51:01.807Z,5.61
2018-01-30T05:52:01.800Z,5.65
2018-01-30T05:53:01.797Z,5.70
2018-01-30T05:54:01.792Z,5.79
2018-01-30T05:55:01.787Z,5.79
2018-01-30T05:56:01.782Z,5.80
2018-01-30T05:57:01.780Z,5.74
2018-01-30T05:58:01.774Z,5.79
2018-01-30T05:59:01.768Z,5.72
2018-01-30T06:00:01.764Z,5.79
2018-01-30T06:01:01.761Z,5.76
2018-01-30T06:02:01.765Z,5.69
2018-01-30T06:03:01.750Z,5.80
2018-01-30T06:04:01.747Z,5.77
2018-01-30T06:05:01.747Z,5.76
2018-01-30T06:06:01.736Z,5.80
2018-01-30T06:07:01.732Z,5.79
2018-01-30T06:08:01.729Z,5.77
2018-01-30T06:09:01.723Z,5.79
2018-01-30T06:10:01.721Z,5.76
2018-01-30T06:11:01.715Z,5.70
2018-01-30T06:12:01.710Z,5.67
2018-01-30T06:13:01.706Z,5.67
2018-01-30T06:14:01.700Z,5.72
2018-01-30T06:15:01.696Z,5.65
2018-01-30T06:16:01.691Z,5.79
2018-01-30T06:17:01.687Z,5.77
2018-01-30T06:18:01.681Z,5.77
2018-01-30T06:19:01.679Z,5.79
2018-01-30T06:20:01.673Z,5.74
2018-01-30T06:21:01.669Z,5.79
2018-01-30T06:22:01.663Z,5.69
2018-01-30T06:23:01.660Z,5.69
2018-01-30T06:24:01.655Z,5.61
2018-01-30T06:25:01.652Z,5.55
2018-01-30T06:26:01.645Z,5.54
2018-01-30T06:27:01.642Z,5.47
2018-01-30T06:28:01.636Z,5.37
2018-01-30T06:29:01.633Z,5.37
2018-01-30T06:30:01.627Z,5.26
2018-01-30T06:31:01.624Z,5.26
2018-01-30T06:32:01.620Z,5.16
2018-01-30T06:33:01.616Z,5.12
2018-01-30T06:34:01.835Z,5.10
2018-01-30T06:35:01.606Z,5.13
2018-01-30T06:36:01.602Z,5.10
2018-01-30T06:37:01.597Z,5.07
2018-01-30T06:38:01.591Z,5.18
2018-01-30T06:39:01.587Z,5.15
2018-01-30T06:40:01.582Z,5.20
2018-01-30T06:41:01.579Z,5.16
2018-01-30T06:42:01.573Z,5.19
2018-01-30T06:43:01.570Z,5.19
2018-01-30T06:44:01.564Z,5.20
2018-01-30T06:45:01.560Z,5.16
2018-01-30T06:46:01.554Z,5.07
2018-01-30T06:47:01.550Z,5.08
2018-01-30T06:48:01.545Z,5.05
2018-01-30T06:49:01.542Z,5.07
2018-01-30T06:50:01.535Z,5.07
2018-01-30T06:51:01.531Z,5.04
2018-01-30T06:52:01.527Z,5.07
2018-01-30T06:53:01.523Z,5.07
2018-01-30T06:54:01.517Z,4.97
2018-01-30T06:55:01.513Z,5.00
2018-01-30T06:56:01.508Z,4.82
2018-01-30T06:57:01.504Z,4.86
2018-01-30T06:58:01.499Z,4.90
2018-01-30T06:59:01.493Z,4.86
2018-01-30T07:00:01.489Z,4.87
2018-01-30T07:01:01.485Z,4.95
2018-01-30T07:02:01.481Z,4.98
2018-01-30T07:03:01.475Z,5.04
2018-01-30T07:04:01.471Z,5.15
2018-01-30T07:05:01.466Z,5.15
2018-01-30T07:06:01.466Z,5.13
2018-01-30T07:07:01.458Z,5.16
2018-01-30T07:08:01.451Z,5.16
2018-01-30T07:09:01.447Z,5.08
2018-01-30T07:10:01.445Z,5.23
2018-01-30T07:11:01.437Z,5.22
2018-01-30T07:12:01.433Z,5.25
2018-01-30T07:13:01.427Z,5.29
2018-01-30T07:14:01.426Z,5.29
2018-01-30T07:15:01.418Z,5.25
2018-01-30T07:16:01.414Z,5.29
2018-01-30T07:17:01.410Z,5.28
2018-01-30T07:18:01.404Z,5.37
2018-01-30T07:19:01.401Z,5.43
2018-01-30T07:20:01.396Z,5.37
2018-01-30T07:21:01.391Z,5.31
2018-01-30T07:22:01.384Z,5.37
2018-01-30T07:23:01.420Z,5.44
2018-01-30T07:24:01.377Z,5.43
2018-01-30T07:25:01.380Z,5.40
2018-01-30T07:26:01.368Z,5.40
2018-01-30T07:27:01.362Z,5.46
2018-01-30T07:28:01.360Z,5.55
2018-01-30T07:29:01.354Z,5.44
2018-01-30T07:30:01.350Z,5.52
2018-01-30T07:31:01.344Z,5.58
2018-01-30T07:32:01.341Z,5.61
2018-01-30T07:33:01.336Z,5.62
2018-01-30T07:34:01.331Z,5.72
2018-01-30T07:35:01.326Z,5.62
2018-01-30T07:36:01.325Z,5.74
2018-01-30T07:37:01.319Z,5.80
2018-01-30T07:38:01.313Z,6.02
2018-01-30T07:39:01.309Z,6.01
2018-01-30T07:40:01.305Z,5.97
2018-01-30T07:41:01.300Z,5.98
2018-01-30T07:42:01.295Z,5.95
2018-01-30T07:43:01.291Z,5.87
2018-01-30T07:44:01.287Z,5.90
2018-01-30T07:45:01.287Z,5.73
2018-01-30T07:46:01.279Z,5.73
2018-01-30T07:47:01.273Z,5.67
2018-01-30T07:48:01.271Z,5.61
2018-01-30T07:49:01.266Z,5.64
2018-01-30T07:50:01.261Z,5.55
2018-01-30T07:51:01.256Z,5.58
2018-01-30T07:52:01.253Z,5.52
2018-01-30T07:53:01.249Z,5.56
2018-01-30T07:54:01.244Z,5.52
2018-01-30T07:55:01.239Z,5.51
2018-01-30T07:56:01.236Z,5.44
2018-01-30T07:57:01.243Z,5.49
2018-01-30T07:58:01.227Z,5.41
2018-01-30T07:59:01.223Z,5.41
2018-01-30T08:00:01.218Z,5.43
2018-01-30T08:01:01.214Z,5.47
2018-01-30T08:02:01.208Z,5.46
2018-01-30T08:03:01.205Z,5.59
2018-01-30T08:04:01.201Z,5.54
2018-01-30T08:05:01.198Z,5.58
2018-01-30T08:06:01.191Z,5.70
2018-01-30T08:07:01.189Z,5.64
2018-01-30T08:08:01.183Z,5.70
2018-01-30T08:09:01.178Z,5.70
2018-01-30T08:10:01.175Z,5.80
2018-01-30T08:11:01.170Z,5.74
2018-01-30T08:12:01.166Z,5.70
2018-01-30T08:13:01.162Z,5.74
2018-01-30T08:14:01.157Z,5.67
2018-01-30T08:15:01.153Z,5.61
2018-01-30T08:16:01.150Z,5.59
2018-01-30T08:17:01.144Z,5.62
2018-01-30T08:18:01.140Z,5.73
2018-01-30T08:19:01.137Z,5.70
2018-01-30T08:20:01.132Z,5.65
2018-01-30T08:21:01.128Z,5.72
2018-01-30T08:22:01.123Z,5.73
2018-01-30T08:23:01.119Z,5.81
2018-01-30T08:24:01.116Z,5.84
2018-01-30T08:25:01.111Z,5.83
2018-01-30T08:26:01.106Z,5.88
2018-01-30T08:27:01.102Z,5.97
2018-01-30T08:28:01.100Z,5.92
2018-01-30T08:29:01.099Z,5.94
2018-01-30T08:30:01.236Z,5.92
2018-01-30T08:31:01.086Z,5.91
2018-01-30T08:32:01.084Z,5.88
2018-01-30T08:33:01.078Z,5.90
2018-01-30T08:34:01.072Z,6.01
2018-01-30T08:35:01.071Z,6.05
2018-01-30T08:36:01.066Z,6.05
2018-01-30T08:37:01.063Z,6.05
2018-01-30T08:38:01.071Z,6.34
2018-01-30T08:39:01.054Z,6.31
2018-01-30T08:40:01.051Z,6.38
2018-01-30T08:41:01.046Z,6.41
2018-01-30T08:42:01.043Z,6.75
2018-01-30T08:43:01.040Z,6.82
2018-01-30T08:44:01.036Z,7.41
2018-01-30T08:45:01.033Z,7.59
2018-01-30T08:46:01.029Z,7.43
2018-01-30T08:47:01.026Z,7.46
2018-01-30T08:48:01.023Z,7.53
2018-01-30T08:49:01.022Z,7.74
2018-01-30T08:50:01.017Z,7.85
2018-01-30T08:51:01.015Z,7.84
2018-01-30T08:52:01.012Z,7.91
2018-01-30T08:53:01.010Z,7.84
2018-01-30T08:54:01.008Z,7.88
2018-01-30T08:55:01.005Z,7.87
2018-01-30T08:56:01.003Z,7.75
2018-01-30T08:57:01.002Z,7.72
2018-01-30T08:58:00.997Z,7.67
2018-01-30T08:59:00.996Z,7.67
2018-01-30T09:00:00.994Z,7.64
2018-01-30T09:01:00.991Z,7.64
2018-01-30T09:02:00.988Z,7.67
2018-01-30T09:03:00.987Z,7.77
2018-01-30T09:04:00.984Z,7.74
2018-01-30T09:05:00.982Z,7.62
2018-01-30T09:06:00.980Z,7.64
2018-01-30T09:07:00.976Z,7.62
2018-01-30T09:08:00.975Z,7.74
2018-01-30T09:09:00.973Z,7.61
2018-01-30T09:10:00.969Z,7.70
2018-01-30T09:11:00.967Z,7.77
2018-01-30T09:12:00.965Z,7.88
2018-01-30T09:13:00.963Z,7.95
2018-01-30T09:14:00.959Z,8.06
2018-01-30T09:15:00.959Z,8.11
2018-01-30T09:16:00.959Z,8.11
2018-01-30T09:17:00.956Z,8.02
2018-01-30T09:18:00.951Z,8.03
2018-01-30T09:19:00.950Z,8.09
2018-01-30T09:20:00.948Z,8.09
2018-01-30T09:21:00.946Z,8.13
2018-01-30T09:22:00.942Z,8.06
2018-01-30T09:23:00.941Z,8.16
2018-01-30T09:24:00.993Z,8.16
2018-01-30T09:25:00.938Z,8.16
2018-01-30T09:26:00.935Z,8.11
2018-01-30T09:27:00.931Z,8.16
2018-01-30T09:28:00.930Z,8.17
2018-01-30T09:29:00.928Z,8.28
2018-01-30T09:30:00.925Z,8.24
2018-01-30T09:31:00.923Z,8.31
2018-01-30T09:32:00.962Z,8.32
2018-01-30T09:33:00.921Z,8.27
2018-01-30T09:34:00.916Z,8.23
2018-01-30T09:35:00.914Z,8.23
2018-01-30T09:36:00.912Z,8.17
2018-01-30T09:37:00.910Z,8.11
2018-01-30T09:38:00.908Z,7.88
2018-01-30T09:39:00.904Z,7.90
2018-01-30T09:40:00.903Z,7.81
2018-01-30T09:41:00.901Z,7.80
2018-01-30T09:42:00.897Z,7.83
2018-01-30T09:43:00.896Z,7.85
2018-01-30T09:44:00.893Z,7.87
2018-01-30T09:45:00.892Z,7.83
2018-01-30T09:46:00.889Z,7.80
2018-01-30T09:47:00.885Z,7.93
2018-01-30T09:48:00.883Z,7.88
2018-01-30T09:49:00.881Z,7.90
2018-01-30T09:50:00.878Z,7.96
2018-01-30T09:51:00.877Z,7.93
2018-01-30T09:52:00.873Z,7.95
2018-01-30T09:53:00.871Z,7.90
2018-01-30T09:54:00.868Z,7.98
2018-01-30T09:55:00.866Z,8.05
2018-01-30T09:56:00.867Z,8.02
2018-01-30T09:57:00.861Z,8.02
2018-01-30T09:58:00.859Z,8.06
2018-01-30T09:59:00.856Z,8.02
2018-01-30T10:00:00.855Z,8.09
2018-01-30T10:01:00.852Z,8.08
2018-01-30T10:02:00.849Z,8.13
2018-01-30T10:03:00.847Z,8.03
2018-01-30T10:04:00.845Z,8.16
2018-01-30T10:05:00.841Z,8.05
2018-01-30T10:06:00.838Z,8.02
2018-01-30T10:07:00.836Z,7.95
2018-01-30T10:08:00.834Z,8.05
2018-01-30T10:09:00.833Z,7.95
2018-01-30T10:10:00.827Z,8.02
2018-01-30T10:11:00.826Z,8.01
2018-01-30T10:12:00.824Z,8.01
2018-01-30T10:13:00.821Z,8.03
2018-01-30T10:14:00.821Z,8.09
2018-01-30T10:15:00.816Z,8.06
2018-01-30T10:16:00.813Z,8.11
2018-01-30T10:17:00.811Z,8.18
2018-01-30T10:18:00.809Z,8.18
2018-01-30T10:19:00.805Z,8.28
2018-01-30T10:20:00.806Z,8.39
2018-01-30T10:21:00.802Z,8.36
2018-01-30T10:22:00.798Z,8.41
2018-01-30T10:23:00.794Z,8.46
2018-01-30T10:24:00.792Z,8.41
2018-01-30T10:25:00.790Z,8.53
2018-01-30T10:26:00.786Z,8.42
2018-01-30T10:27:00.784Z,8.45
2018-01-30T10:28:00.783Z,8.45
2018-01-30T10:29:00.780Z,8.44
2018-01-30T10:30:00.782Z,8.31
2018-01-30T10:31:00.776Z,8.27
2018-01-30T10:32:00.773Z,8.26
2018-01-30T10:33:00.770Z,8.14
2018-01-30T10:34:00.766Z,8.14
2018-01-30T10:35:00.765Z,8.26
2018-01-30T10:36:00.762Z,8.16
2018-01-30T10:37:00.760Z,8.17
2018-01-30T10:38:00.756Z,8.11
2018-01-30T10:39:00.754Z,8.06
2018-01-30T10:40:00.753Z,8.13
2018-01-30T10:41:00.749Z,8.13
2018-01-30T10:42:00.747Z,8.08
2018-01-30T10:43:00.744Z,8.08
2018-01-30T10:44:00.741Z,8.16
2018-01-30T10:45:00.739Z,8.03
2018-01-30T10:46:00.736Z,8.06
2018-01-30T10:47:00.734Z,8.13
2018-01-30T10:48:00.730Z,8.20
2018-01-30T10:49:00.729Z,8.13
2018-01-30T10:50:00.724Z,8.17
2018-01-30T10:51:00.723Z,8.17
2018-01-30T10:52:00.720Z,8.23
2018-01-30T10:53:00.717Z,8.24
2018-01-30T10:54:00.715Z,8.23
2018-01-30T10:55:00.712Z,8.28
2018-01-30T10:56:00.711Z,8.28
2018-01-30T10:57:00.707Z,8.28
2018-01-30T10:58:00.703Z,8.32
2018-01-30T10:59:00.702Z,8.32
2018-01-30T11:00:00.699Z,8.39
2018-01-30T11:01:00.697Z,8.46
2018-01-30T11:02:00.693Z,8.50
2018-01-30T11:03:00.690Z,8.61
2018-01-30T11:04:00.688Z,8.46
2018-01-30T11:05:00.686Z,8.63
2018-01-30T11:06:00.685Z,8.61
2018-01-30T11:07:00.680Z,8.59
2018-01-30T11:08:00.680Z,8.56
2018-01-30T11:09:00.675Z,8.61
2018-01-30T11:10:00.673Z,8.68
2018-01-30T11:11:00.673Z,8.61
2018-01-30T11:12:00.667Z,8.64
2018-01-30T11:13:00.664Z,8.64
2018-01-30T11:14:00.661Z,8.59
2018-01-30T11:15:00.659Z,8.50
2018-01-30T11:16:00.657Z,8.52
2018-01-30T11:17:00.654Z,8.68
2018-01-30T11:18:00.651Z,8.61
2018-01-30T11:19:00.649Z,8.61
2018-01-30T11:20:00.647Z,8.52
2018-01-30T11:21:00.645Z,8.56
2018-01-30T11:22:00.641Z,8.50
2018-01-30T11:23:00.639Z,8.50
2018-01-30T11:24:00.638Z,8.50
2018-01-30T11:25:00.636Z,8.39
2018-01-30T11:26:00.631Z,8.41
2018-01-30T11:27:00.629Z,8.36
2018-01-30T11:28:00.627Z,8.36
2018-01-30T11:29:00.625Z,8.41
2018-01-30T11:30:00.621Z,8.39
2018-01-30T11:31:00.620Z,8.36
2018-01-30T11:32:00.617Z,8.42
2018-01-30T11:33:00.615Z,8.42
2018-01-30T11:34:00.613Z,8.38
2018-01-30T11:35:00.609Z,8.41
2018-01-30T11:36:00.607Z,8.45
2018-01-30T11:37:00.605Z,8.36
2018-01-30T11:38:00.602Z,8.41
2018-01-30T11:39:00.600Z,8.41
2018-01-30T11:40:00.597Z,8.36
2018-01-30T11:41:00.595Z,8.44
2018-01-30T11:42:00.594Z,8.41
2018-01-30T11:43:00.590Z,8.41
2018-01-30T11:44:00.589Z,8.41
2018-01-30T11:45:00.585Z,8.35
2018-01-30T11:46:00.581Z,8.46
2018-01-30T11:47:00.579Z,8.44
2018-01-30T11:48:00.578Z,8.57
2018-01-30T11:49:00.574Z,8.59
2018-01-30T11:50:00.580Z,8.53
2018-01-30T11:51:00.570Z,8.49
2018-01-30T11:52:00.567Z,8.44
2018-01-30T11:53:00.565Z,8.38
2018-01-30T11:54:00.560Z,8.35
2018-01-30T11:55:00.558Z,8.38
2018-01-30T11:56:00.557Z,8.39
2018-01-30T11:57:00.556Z,8.54
2018-01-30T11:58:00.550Z,8.61
2018-01-30T11:59:00.547Z,8.57
2018-01-30T12:00:00.563Z,8.39
2018-01-30T12:01:00.559Z,8.39
2018-01-30T12:02:00.540Z,8.44
2018-01-30T12:03:00.536Z,8.56
2018-01-30T12:04:00.534Z,8.50
2018-01-30T12:05:00.531Z,8.52
2018-01-30T12:06:00.528Z,8.64
2018-01-30T12:07:00.527Z,8.50
2018-01-30T12:08:00.523Z,8.45
2018-01-30T12:09:00.521Z,8.53
2018-01-30T12:10:00.517Z,8.49
2018-01-30T12:11:00.514Z,8.54
2018-01-30T12:12:00.512Z,8.53
2018-01-30T12:13:00.510Z,8.52
2018-01-30T12:14:00.506Z,8.64
2018-01-30T12:15:00.504Z,8.63
2018-01-30T12:16:00.716Z,8.56
2018-01-30T12:17:00.499Z,8.56
2018-01-30T12:18:00.498Z,8.49
2018-01-30T12:19:00.499Z,8.61
2018-01-30T12:20:00.492Z,8.61
2018-01-30T12:21:00.488Z,8.61
2018-01-30T12:22:00.485Z,8.53
2018-01-30T12:23:00.483Z,8.57
2018-01-30T12:24:00.480Z,8.68
2018-01-30T12:25:00.478Z,8.54
2018-01-30T12:26:00.475Z,8.56
2018-01-30T12:27:00.472Z,8.50
2018-01-30T12:28:00.470Z,8.53
2018-01-30T12:29:00.467Z,8.52
2018-01-30T12:30:00.465Z,8.54
2018-01-30T12:31:00.461Z,8.64
2018-01-30T12:32:00.460Z,8.59
2018-01-30T12:33:00.457Z,8.63
2018-01-30T12:34:00.452Z,8.75
2018-01-30T12:35:00.450Z,8.77
2018-01-30T12:36:00.449Z,8.77
2018-01-30T12:37:00.446Z,8.75
2018-01-30T12:38:00.442Z,8.72
2018-01-30T12:39:00.440Z,8.75
2018-01-30T12:40:00.437Z,8.82
2018-01-30T12:41:00.435Z,8.75
2018-01-30T12:42:00.431Z,8.77
2018-01-30T12:43:00.429Z,8.75
2018-01-30T12:44:00.427Z,8.77
2018-01-30T12:45:00.424Z,8.81
2018-01-30T12:46:00.421Z,8.77
2018-01-30T12:47:00.420Z,8.77
2018-01-30T12:48:00.416Z,8.75
2018-01-30T12:49:00.414Z,8.90
2018-01-30T12:50:00.416Z,8.84
2018-01-30T12:51:00.408Z,9.00
2018-01-30T12:52:00.406Z,9.05
2018-01-30T12:53:00.404Z,9.02
2018-01-30T12:54:00.401Z,9.09
2018-01-30T12:55:00.398Z,9.00
2018-01-30T12:56:00.398Z,8.96
2018-01-30T12:57:00.395Z,9.08
2018-01-30T12:58:00.391Z,9.12
2018-01-30T12:59:00.388Z,9.05
2018-01-30T13:00:00.387Z,9.03
2018-01-30T13:01:00.385Z,9.09
2018-01-30T13:02:00.381Z,9.02
2018-01-30T13:03:00.379Z,8.96
2018-01-30T13:04:00.377Z,8.95
2018-01-30T13:05:00.375Z,8.92
2018-01-30T13:06:00.371Z,8.86
2018-01-30T13:07:00.371Z,8.90
2018-01-30T13:08:00.368Z,8.95
2018-01-30T13:09:00.366Z,8.97
2018-01-30T13:10:00.363Z,9.03
2018-01-30T13:11:00.360Z,9.13
2018-01-30T13:12:00.358Z,9.05
2018-01-30T13:13:00.356Z,9.05
2018-01-30T13:14:00.353Z,8.96
2018-01-30T13:15:00.351Z,8.97
2018-01-30T13:16:00.350Z,9.05
2018-01-30T13:17:00.347Z,9.00
2018-01-30T13:18:00.344Z,9.11
2018-01-30T13:19:00.341Z,9.09